Time;durP1;ratioP1;P1;durP2;ratioP2;P2;SDS_P1;SDS_P2;PMS_P1;PMS_P2;Temp;Humidity;BMP_temperature;BMP_pressure;BME280_temperature;BME280_humidity;BME280_pressure;Samples;Min_cycle;Max_cycle;Signal;HPM_P1;HPM_P2
2021/03/22 00:00:24;;;;;;;27.90;9.68;;;;;;;0.47;83.44;98348.64;2186200;80;21296;-73
2021/03/22 00:03:28;;;;;;;23.18;8.23;;;;;;;0.42;83.16;98351.81;2189516;81;21593;-72
2021/03/22 00:06:31;;;;;;;28.32;8.98;;;;;;;0.36;82.88;98355.41;2187264;80;21284;-73
2021/03/22 00:09:33;;;;;;;28.32;9.43;;;;;;;0.33;83.24;98357.61;2186401;80;21358;-73
2021/03/22 00:12:35;;;;;;;26.50;7.85;;;;;;;0.32;83.31;98361.08;2196764;80;21327;-73
2021/03/22 00:15:37;;;;;;;23.73;7.90;;;;;;;0.29;83.34;98366.32;2192439;80;21367;-73
2021/03/22 00:18:39;;;;;;;23.35;8.55;;;;;;;0.28;82.94;98376.23;2209604;80;21291;-73
2021/03/22 00:21:41;;;;;;;26.77;9.48;;;;;;;0.24;82.68;98374.61;2201579;80;21276;-73
2021/03/22 00:24:43;;;;;;;27.22;8.45;;;;;;;0.20;82.94;98373.00;2202153;80;21145;-72
2021/03/22 00:27:45;;;;;;;29.67;8.98;;;;;;;0.15;82.82;98375.70;2190701;80;21651;-73
2021/03/22 00:30:47;;;;;;;24.77;8.33;;;;;;;0.12;82.62;98402.03;2194846;79;21366;-73
2021/03/22 00:33:49;;;;;;;24.85;8.58;;;;;;;0.09;82.71;98382.31;2193782;80;21307;-73
2021/03/22 00:36:51;;;;;;;26.33;8.50;;;;;;;0.07;82.90;98378.08;2201544;80;21800;-72
2021/03/22 00:39:53;;;;;;;26.87;7.87;;;;;;;0.05;82.87;98382.44;2188361;80;21296;-73
2021/03/22 00:42:55;;;;;;;23.85;7.12;;;;;;;0.01;82.71;98384.23;2183012;80;21732;-73
2021/03/22 00:45:57;;;;;;;22.32;7.12;;;;;;;0.02;82.88;98386.39;2193924;80;21161;-73
2021/03/22 00:48:59;;;;;;;23.75;7.03;;;;;;;-0.02;82.95;98391.60;2212246;80;21303;-72
2021/03/22 00:52:01;;;;;;;21.75;6.80;;;;;;;-0.02;82.88;98394.63;2183479;80;21296;-73
2021/03/22 00:55:03;;;;;;;23.40;7.15;;;;;;;-0.12;82.86;98397.88;2196440;80;21284;-73
2021/03/22 00:58:05;;;;;;;22.42;6.40;;;;;;;-0.14;83.04;98399.66;2199587;80;21276;-73
2021/03/22 01:01:07;;;;;;;27.95;7.25;;;;;;;-0.17;83.24;98403.60;2198939;79;21284;-72
2021/03/22 01:04:09;;;;;;;25.97;6.58;;;;;;;-0.22;82.93;98396.41;2200512;80;21292;-73
2021/03/22 01:07:11;;;;;;;22.75;6.30;;;;;;;-0.28;82.81;98404.30;2181650;80;21292;-73
2021/03/22 01:10:13;;;;;;;22.42;6.20;;;;;;;-0.31;83.00;98402.64;2204870;80;21312;-73
2021/03/22 01:13:15;;;;;;;23.32;6.70;;;;;;;-0.37;83.18;98411.81;2186999;80;21723;-73
2021/03/22 01:16:17;;;;;;;22.85;6.83;;;;;;;-0.44;82.97;98407.68;2208338;80;21701;-73
2021/03/22 01:19:19;;;;;;;28.50;7.17;;;;;;;-0.51;83.08;98406.97;2193648;80;21719;-73
2021/03/22 01:22:21;;;;;;;23.30;7.00;;;;;;;-0.58;83.27;98413.14;2195221;79;21379;-73
2021/03/22 01:25:23;;;;;;;24.00;6.80;;;;;;;-0.63;83.27;98407.23;2196810;80;21285;-72
2021/03/22 01:28:25;;;;;;;26.57;6.78;;;;;;;-0.70;83.30;98407.37;2203065;80;21325;-72
2021/03/22 01:31:27;;;;;;;27.22;7.55;;;;;;;-0.74;83.15;98406.20;2208676;80;21329;-73
2021/03/22 01:34:29;;;;;;;25.37;7.15;;;;;;;-0.80;83.29;98412.33;2210424;80;21296;-73
2021/03/22 01:37:31;;;;;;;24.50;7.12;;;;;;;-0.86;83.26;98402.16;2213041;80;21299;-73
2021/03/22 01:40:33;;;;;;;22.55;6.60;;;;;;;-0.95;82.94;98403.63;2205436;80;21291;-73
2021/03/22 01:43:35;;;;;;;23.25;6.10;;;;;;;-0.99;83.27;98405.86;2184578;80;21364;-72
2021/03/22 01:46:38;;;;;;;24.72;6.50;;;;;;;-1.12;83.42;98411.70;2190293;80;21366;-73
2021/03/22 01:49:40;;;;;;;27.85;6.60;;;;;;;-1.24;83.23;98414.92;2195402;80;21287;-72
2021/03/22 01:52:42;;;;;;;27.45;6.75;;;;;;;-1.35;83.04;98409.59;2198121;80;21281;-72
2021/03/22 01:55:44;;;;;;;22.45;6.45;;;;;;;-1.49;83.37;98417.59;2196064;80;21311;-72
2021/03/22 01:58:45;;;;;;;24.07;6.65;;;;;;;-1.63;83.17;98417.83;2193685;80;21283;-72
2021/03/22 02:01:47;;;;;;;24.18;6.30;;;;;;;-1.76;83.40;98418.48;2183654;80;21359;-72
2021/03/22 02:04:49;;;;;;;25.90;6.90;;;;;;;-1.86;83.27;98415.67;2183722;80;21310;-72
2021/03/22 02:07:51;;;;;;;25.12;6.83;;;;;;;-1.96;83.56;98419.67;2206238;80;21343;-72
2021/03/22 02:10:53;;;;;;;24.85;6.90;;;;;;;-2.13;83.57;98416.09;2197032;80;21292;-72
2021/03/22 02:13:55;;;;;;;26.93;6.40;;;;;;;-2.17;83.80;98415.75;2200710;80;21712;-72
2021/03/22 02:16:58;;;;;;;21.85;5.70;;;;;;;-2.27;83.51;98421.47;2206035;80;21728;-72
2021/03/22 02:20:00;;;;;;;25.88;6.78;;;;;;;-2.35;83.99;98424.58;2197325;80;21303;-72
2021/03/22 02:23:01;;;;;;;22.70;6.72;;;;;;;-2.42;83.76;98426.00;2193595;80;21732;-72
2021/03/22 02:26:03;;;;;;;23.85;7.10;;;;;;;-2.50;84.34;98421.82;2181847;80;21319;-72
2021/03/22 02:29:05;;;;;;;23.95;6.33;;;;;;;-2.51;85.17;98424.41;2188891;80;21332;-72
2021/03/22 02:32:08;;;;;;;24.63;6.50;;;;;;;-2.53;85.18;98430.86;2201290;80;21740;-72
2021/03/22 02:35:10;;;;;;;24.85;6.97;;;;;;;-2.52;85.14;98430.41;2205059;80;22738;-72
2021/03/22 02:38:12;;;;;;;28.23;7.22;;;;;;;-2.52;85.04;98437.67;2186441;80;21712;-72
2021/03/22 02:41:14;;;;;;;24.92;6.85;;;;;;;-2.47;85.07;98446.17;2189939;80;21736;-72
2021/03/22 02:44:16;;;;;;;25.55;7.40;;;;;;;-2.44;85.37;98446.57;2197114;80;21288;-72
2021/03/22 02:47:18;;;;;;;22.77;6.78;;;;;;;-2.41;85.29;98439.23;2208151;80;21284;-72
2021/03/22 02:50:20;;;;;;;27.13;7.05;;;;;;;-2.40;85.66;98459.75;2188774;80;21704;-72
2021/03/22 02:53:22;;;;;;;26.60;7.17;;;;;;;-2.34;85.38;98457.12;2196512;80;21784;-72
2021/03/22 02:56:24;;;;;;;26.77;6.78;;;;;;;-2.26;85.29;98463.41;2189930;80;21284;-72
2021/03/22 02:59:26;;;;;;;24.90;7.55;;;;;;;-2.20;84.91;98468.45;2186810;80;21275;-72
2021/03/22 03:02:28;;;;;;;24.98;7.37;;;;;;;-2.17;84.69;98471.42;2195436;80;21303;-72
2021/03/22 03:05:30;;;;;;;25.08;6.53;;;;;;;-2.18;84.66;98475.72;2209016;80;21756;-72
2021/03/22 03:08:32;;;;;;;26.87;7.70;;;;;;;-2.18;84.70;98472.31;2178397;80;21709;-72
2021/03/22 03:11:34;;;;;;;22.32;6.58;;;;;;;-2.15;84.53;98478.23;2198609;79;21723;-72
2021/03/22 03:14:36;;;;;;;28.27;7.42;;;;;;;-2.13;84.23;98482.07;2195881;80;21747;-72
2021/03/22 03:17:38;;;;;;;24.15;6.87;;;;;;;-2.16;84.27;98481.67;2185393;80;21724;-72
2021/03/22 03:20:40;;;;;;;26.68;7.03;;;;;;;-2.20;84.40;98484.32;2199497;79;21316;-72
2021/03/22 03:23:41;;;;;;;25.65;7.22;;;;;;;-2.21;84.28;98486.47;2169868;80;21287;-72
2021/03/22 03:26:43;;;;;;;34.27;7.97;;;;;;;-2.22;84.18;98486.08;2194851;79;21292;-73
2021/03/22 03:29:45;;;;;;;27.85;7.22;;;;;;;-2.27;84.11;98488.27;2202858;80;21316;-72
2021/03/22 03:32:48;;;;;;;26.93;6.78;;;;;;;-2.28;83.96;98494.72;2193532;80;21162;-72
2021/03/22 03:35:50;;;;;;;24.55;6.90;;;;;;;-2.31;84.08;98487.06;2208968;80;21284;-72
2021/03/22 03:38:52;;;;;;;30.55;7.60;;;;;;;-2.30;84.15;98490.02;2190227;79;21291;-72
2021/03/22 03:41:54;;;;;;;27.85;7.50;;;;;;;-2.29;84.14;98490.00;2203924;79;21288;-72
2021/03/22 03:44:56;;;;;;;27.60;6.58;;;;;;;-2.30;83.94;98492.17;2194197;79;21704;-73
2021/03/22 03:47:58;;;;;;;26.07;6.45;;;;;;;-2.28;83.85;98503.27;2205495;80;21702;-72
2021/03/22 03:51:00;;;;;;;24.50;7.17;;;;;;;-2.31;83.70;98511.02;2201536;79;21304;-72
2021/03/22 03:54:02;;;;;;;26.85;6.55;;;;;;;-2.37;83.58;98514.10;2192098;80;21378;-72
2021/03/22 03:57:03;;;;;;;28.83;7.15;;;;;;;-2.50;83.26;98516.86;2199598;80;21780;-72
2021/03/22 04:00:06;;;;;;;27.75;7.55;;;;;;;-2.63;83.18;98522.58;2209115;80;21294;-72
2021/03/22 04:03:07;;;;;;;24.02;6.12;;;;;;;-2.67;83.35;98530.31;2188273;80;21746;-72
2021/03/22 04:06:10;;;;;;;25.85;6.62;;;;;;;-2.79;83.21;98539.02;2199418;80;21795;-73
2021/03/22 04:09:12;;;;;;;23.40;6.28;;;;;;;-2.95;83.78;98542.20;2198778;80;21308;-72
2021/03/22 04:12:14;;;;;;;26.65;7.00;;;;;;;-3.14;83.20;98541.11;2200909;80;21303;-72
2021/03/22 04:15:16;;;;;;;29.07;6.85;;;;;;;-3.26;83.82;98547.66;2212433;79;21747;-72
2021/03/22 04:18:18;;;;;;;27.27;7.30;;;;;;;-3.36;83.81;98551.16;2191937;80;21751;-72
2021/03/22 04:21:20;;;;;;;27.15;7.03;;;;;;;-3.49;84.42;98552.56;2203507;80;21307;-72
2021/03/22 04:24:22;;;;;;;25.15;6.92;;;;;;;-3.59;84.53;98554.80;2192638;79;21740;-72
2021/03/22 04:27:24;;;;;;;27.35;7.97;;;;;;;-3.75;84.10;98561.76;2194126;80;21850;-72
2021/03/22 04:30:26;;;;;;;27.98;7.55;;;;;;;-3.86;85.24;98569.52;2210558;80;21331;-72
2021/03/22 04:33:28;;;;;;;26.62;7.67;;;;;;;-3.93;85.31;98574.26;2182528;80;21295;-72
2021/03/22 04:36:30;;;;;;;28.30;7.75;;;;;;;-4.04;85.50;98574.75;2185719;80;21285;-72
2021/03/22 04:39:32;;;;;;;28.60;7.55;;;;;;;-4.10;85.59;98582.48;2181196;80;21300;-73
2021/03/22 04:42:34;;;;;;;26.85;7.60;;;;;;;-4.17;85.66;98579.09;2178039;81;21320;-72
2021/03/22 04:45:36;;;;;;;26.65;7.75;;;;;;;-4.23;85.63;98577.86;2192103;80;21291;-72
2021/03/22 04:48:38;;;;;;;33.90;9.10;;;;;;;-4.28;85.38;98580.45;2196511;80;21288;-72
2021/03/22 04:51:40;;;;;;;28.00;7.50;;;;;;;-4.34;86.12;98585.58;2201691;78;21728;-72
2021/03/22 04:54:42;;;;;;;26.23;7.35;;;;;;;-4.40;85.62;98589.46;2192488;80;21296;-72
2021/03/22 04:57:44;;;;;;;27.27;8.20;;;;;;;-4.46;85.28;98588.22;2200390;80;21308;-73
2021/03/22 05:00:46;;;;;;;25.30;7.35;;;;;;;-4.56;85.40;98599.76;2193506;80;21312;-72
2021/03/22 05:03:48;;;;;;;27.65;8.18;;;;;;;-4.52;85.66;98604.45;2195554;80;21311;-72
2021/03/22 05:06:50;;;;;;;24.12;7.17;;;;;;;-4.35;85.79;98596.70;2187763;80;21300;-72
2021/03/22 05:09:52;;;;;;;25.08;7.53;;;;;;;-4.16;85.43;98605.59;2163853;81;21308;-72
2021/03/22 05:12:54;;;;;;;28.52;8.10;;;;;;;-4.04;85.12;98608.06;2186009;80;21205;-72
2021/03/22 05:15:56;;;;;;;26.17;8.00;;;;;;;-3.93;84.74;98612.70;2211395;80;21280;-72
2021/03/22 05:18:58;;;;;;;29.35;7.97;;;;;;;-3.91;84.72;98616.53;2195979;80;21264;-73
2021/03/22 05:22:00;;;;;;;27.35;8.28;;;;;;;-3.94;84.47;98623.80;2194195;80;21287;-72
2021/03/22 05:25:02;;;;;;;27.67;7.80;;;;;;;-4.02;84.46;98628.98;2192232;81;21290;-73
2021/03/22 05:28:04;;;;;;;29.48;7.90;;;;;;;-4.08;84.44;98626.87;2200540;80;21296;-72
2021/03/22 05:31:06;;;;;;;28.45;8.13;;;;;;;-4.12;84.42;98629.89;2196845;80;21295;-72
2021/03/22 05:34:08;;;;;;;28.77;7.95;;;;;;;-4.09;84.60;98624.75;2194539;80;21299;-72
2021/03/22 05:37:10;;;;;;;28.38;7.65;;;;;;;-4.02;84.11;98627.70;2203583;81;21280;-72
2021/03/22 05:40:12;;;;;;;28.83;7.35;;;;;;;-3.88;84.31;98632.75;2190914;80;21312;-72
2021/03/22 05:43:14;;;;;;;25.97;7.53;;;;;;;-3.71;83.81;98629.22;2197055;80;21614;-72
2021/03/22 05:46:16;;;;;;;29.25;9.03;;;;;;;-3.56;83.32;98638.09;2198999;81;21280;-72
2021/03/22 05:49:18;;;;;;;25.77;7.40;;;;;;;-3.41;83.06;98629.87;2195493;79;21293;-72
2021/03/22 05:52:20;;;;;;;28.80;7.70;;;;;;;-3.13;82.91;98643.33;2199290;79;21839;-72
2021/03/22 05:55:22;;;;;;;29.60;8.30;;;;;;;-2.88;82.76;98646.51;2198193;81;21280;-72
2021/03/22 05:58:24;;;;;;;27.93;8.20;;;;;;;-2.52;82.73;98650.84;2202242;79;21288;-72
2021/03/22 06:01:26;;;;;;;24.37;7.70;;;;;;;-1.96;82.46;98651.03;2191003;80;21277;-72
2021/03/22 06:04:28;;;;;;;27.85;7.90;;;;;;;-1.49;81.57;98654.27;2187985;79;21735;-72
2021/03/22 06:07:30;;;;;;;28.95;7.70;;;;;;;-1.06;81.02;98650.56;2195118;80;21744;-71
2021/03/22 06:10:32;;;;;;;26.82;8.45;;;;;;;-0.64;80.16;98657.56;2193428;80;21759;-72
2021/03/22 06:13:34;;;;;;;25.08;7.90;;;;;;;-0.36;79.56;98658.33;2184805;80;21803;-71
2021/03/22 06:16:36;;;;;;;24.12;7.25;;;;;;;-0.05;78.94;98659.02;2200166;80;21743;-72
2021/03/22 06:19:38;;;;;;;26.15;7.67;;;;;;;0.40;78.40;98661.47;2193719;80;21775;-71
2021/03/22 06:22:41;;;;;;;24.75;7.53;;;;;;;0.62;77.23;98654.56;2196488;80;21276;-71
2021/03/22 06:25:42;;;;;;;30.80;8.83;;;;;;;0.77;76.30;98661.09;2191709;80;21327;-71
2021/03/22 06:28:44;;;;;;;25.32;7.30;;;;;;;1.04;76.85;98668.15;2184336;80;21760;-71
2021/03/22 06:31:46;;;;;;;24.47;7.50;;;;;;;1.42;75.83;98671.09;2182076;81;21296;-71
2021/03/22 06:34:49;;;;;;;27.32;7.83;;;;;;;1.49;75.34;98675.21;2185763;81;21700;-71
2021/03/22 06:37:51;;;;;;;26.40;7.50;;;;;;;1.65;75.34;98676.94;2203328;80;21335;-71
2021/03/22 06:40:53;;;;;;;24.55;7.62;;;;;;;2.10;75.18;98678.28;2191745;79;21295;-71
2021/03/22 06:43:55;;;;;;;26.27;8.40;;;;;;;2.21;73.92;98678.39;2165114;80;21720;-71
2021/03/22 06:46:57;;;;;;;26.87;7.53;;;;;;;2.59;73.76;98684.59;2203142;80;21280;-71
2021/03/22 06:49:59;;;;;;;23.60;7.20;;;;;;;2.74;72.36;98692.33;2208730;80;21295;-71
2021/03/22 06:53:02;;;;;;;24.32;7.40;;;;;;;2.85;72.78;98690.25;2180575;80;21295;-71
2021/03/22 06:56:04;;;;;;;25.15;7.20;;;;;;;3.22;71.84;98694.67;2204123;79;21295;-71
2021/03/22 06:59:06;;;;;;;26.95;7.95;;;;;;;3.44;71.40;98687.05;2188513;80;21362;-71
2021/03/22 07:02:08;;;;;;;24.72;7.75;;;;;;;3.80;70.54;98691.85;2202618;80;21276;-71
2021/03/22 07:05:10;;;;;;;26.42;6.83;;;;;;;3.93;70.92;98691.80;2206721;80;21303;-71
2021/03/22 07:08:13;;;;;;;24.75;7.42;;;;;;;4.03;68.53;98694.91;2200029;80;21298;-71
2021/03/22 07:11:16;;;;;;;23.52;7.08;;;;;;;3.91;68.83;98698.80;2179605;80;21336;-71
2021/03/22 07:14:18;;;;;;;23.62;7.10;;;;;;;4.25;68.70;98688.92;2181362;80;21327;-71
2021/03/22 07:17:21;;;;;;;23.55;6.60;;;;;;;4.59;69.78;98688.95;2181249;80;21129;-71
2021/03/22 07:20:23;;;;;;;25.95;7.62;;;;;;;4.79;66.34;98697.27;2182171;80;21280;-71
2021/03/22 07:23:26;;;;;;;22.42;7.37;;;;;;;4.57;67.23;98698.54;2188217;80;21291;-71
2021/03/22 07:26:28;;;;;;;;;;;;;;;4.76;67.44;98694.80;2216797;80;21804;-71
2021/03/22 07:29:30;;;;;;;24.02;6.50;;;;;;;4.97;66.25;98696.54;2198742;80;20522;-71
2021/03/22 07:32:32;;;;;;;24.15;7.35;;;;;;;5.37;67.00;98695.34;2195508;80;21727;-71
2021/03/22 07:35:35;;;;;;;18.00;4.37;;;;;;;5.76;63.85;98695.02;2166260;80;21107;-71
2021/03/22 07:38:37;;;;;;;19.02;4.50;;;;;;;5.80;60.31;98697.41;2188245;80;21161;-71
2021/03/22 07:41:39;;;;;;;21.82;4.90;;;;;;;5.64;59.68;98692.50;2197306;80;21288;-71
2021/03/22 07:44:42;;;;;;;18.65;4.40;;;;;;;5.78;63.18;98690.14;2189823;80;21728;-71
2021/03/22 07:47:45;;;;;;;22.58;6.00;;;;;;;5.81;61.91;98693.07;2199335;80;22071;-71
2021/03/22 07:50:47;;;;;;;18.62;4.80;;;;;;;5.99;57.86;98694.03;2201947;80;21292;-72
2021/03/22 07:53:49;;;;;;;21.90;4.90;;;;;;;5.99;61.79;98701.84;2190572;80;21623;-71
2021/03/22 07:56:51;;;;;;;17.23;3.85;;;;;;;6.13;58.37;98705.15;2203394;80;21804;-71
2021/03/22 07:59:53;;;;;;;15.60;3.70;;;;;;;6.07;59.67;98703.66;2195792;80;21716;-71
2021/03/22 08:02:55;;;;;;;16.60;3.00;;;;;;;6.21;58.49;98701.28;2191455;80;21720;-71
2021/03/22 08:05:57;;;;;;;12.60;3.10;;;;;;;6.05;57.10;98704.20;2211548;79;21284;-71
2021/03/22 08:08:59;;;;;;;14.53;3.20;;;;;;;5.94;56.87;98703.33;2201716;80;21289;-71
2021/03/22 08:12:01;;;;;;;16.50;3.33;;;;;;;5.89;57.88;98702.70;2197092;80;21366;-71
2021/03/22 08:15:03;;;;;;;14.75;2.90;;;;;;;6.00;57.79;98700.94;2207179;80;21146;-71
2021/03/22 08:18:05;;;;;;;11.57;2.80;;;;;;;6.02;52.54;98714.29;2210161;80;21732;-71
2021/03/22 08:21:07;;;;;;;11.43;3.10;;;;;;;6.00;55.60;98706.98;2199957;80;21272;-71
2021/03/22 08:24:10;;;;;;;14.38;3.58;;;;;;;5.80;53.97;98699.18;2190935;80;21315;-71
2021/03/22 08:27:12;;;;;;;15.78;3.58;;;;;;;5.76;55.87;98703.69;2186216;80;21229;-72
2021/03/22 08:30:14;;;;;;;12.73;2.77;;;;;;;5.92;56.46;98710.81;2200797;80;21319;-72
2021/03/22 08:33:17;;;;;;;12.13;2.75;;;;;;;6.07;51.77;98716.69;2195563;80;21279;-72
2021/03/22 08:36:19;;;;;;;14.95;3.58;;;;;;;5.99;49.23;98726.58;2202044;80;21280;-72
2021/03/22 08:39:21;;;;;;;20.77;4.97;;;;;;;5.99;54.11;98723.98;2203419;79;21277;-72
2021/03/22 08:42:23;;;;;;;20.55;5.22;;;;;;;6.15;53.99;98730.22;2203937;79;21275;-72
2021/03/22 08:45:25;;;;;;;15.55;3.47;;;;;;;5.83;56.06;98725.08;2194975;80;21315;-72
2021/03/22 08:48:28;;;;;;;18.45;3.95;;;;;;;5.70;55.43;98729.95;2186564;80;21280;-72
2021/03/22 08:51:30;;;;;;;10.48;2.50;;;;;;;5.79;53.33;98730.02;2183242;80;21367;-72
2021/03/22 08:54:32;;;;;;;14.53;3.35;;;;;;;5.88;49.99;98730.94;2190792;80;21616;-72
2021/03/22 08:57:34;;;;;;;17.27;3.85;;;;;;;5.95;52.85;98737.57;2194937;80;21327;-71
2021/03/22 09:00:37;;;;;;;17.85;4.10;;;;;;;5.88;51.65;98746.56;2193671;80;21145;-72
2021/03/22 09:03:39;;;;;;;16.40;4.08;;;;;;;6.05;54.69;98734.98;2195336;80;21403;-72
2021/03/22 09:06:41;;;;;;;16.90;4.08;;;;;;;6.15;51.53;98746.28;2183706;80;21169;-72
2021/03/22 09:09:43;;;;;;;20.55;4.35;;;;;;;6.01;53.25;98743.00;2198522;80;21153;-72
2021/03/22 09:12:45;;;;;;;20.62;4.50;;;;;;;6.09;52.11;98748.70;2188174;80;21311;-72
2021/03/22 09:15:47;;;;;;;18.85;4.30;;;;;;;6.06;53.47;98754.05;2191274;80;21287;-72
2021/03/22 09:18:49;;;;;;;20.10;4.58;;;;;;;6.25;55.05;98755.41;2191487;80;21300;-72
2021/03/22 09:25:30;;;;;;;18.65;5.10;;;;;;;6.09;51.48;98759.11;2197530;80;21574;-72
2021/03/22 09:28:32;;;;;;;18.15;4.42;;;;;;;5.66;52.62;98773.94;2192913;79;21716;-72
2021/03/22 09:31:35;;;;;;;17.77;4.35;;;;;;;5.45;52.73;98770.48;2192382;80;21799;-72
2021/03/22 09:34:37;;;;;;;20.17;5.05;;;;;;;5.28;54.08;98764.66;2187049;80;21169;-73
2021/03/22 09:37:39;;;;;;;18.70;4.58;;;;;;;5.54;55.66;98771.39;2209073;79;21751;-72
2021/03/22 09:40:41;;;;;;;19.95;4.65;;;;;;;5.65;54.04;98759.25;2209866;80;21268;-73
2021/03/22 09:43:44;;;;;;;18.62;4.12;;;;;;;5.59;54.49;98768.59;2186182;80;21166;-72
2021/03/22 09:46:48;;;;;;;15.03;4.50;;;;;;;5.92;54.89;98768.08;2206006;80;21289;-72
2021/03/22 09:49:51;;;;;;;17.35;4.37;;;;;;;6.10;53.38;98763.41;2163341;80;21291;-72
2021/03/22 09:52:55;;;;;;;;;;;;;;;6.26;53.85;98760.98;2196509;80;21756;-73
2021/03/22 09:56:07;;;;;;;15.90;3.60;;;;;;;6.30;50.50;98770.82;2202401;80;20533;-72
2021/03/22 09:59:10;;;;;;;14.67;3.73;;;;;;;6.39;50.40;98780.82;2183925;80;21725;-72
2021/03/22 10:02:12;;;;;;;17.20;3.90;;;;;;;6.44;50.20;98759.77;2199540;80;22411;-72
2021/03/22 10:05:18;;;;;;;12.10;2.95;;;;;;;6.28;49.32;98754.39;2183601;80;21720;-73
2021/03/22 10:08:29;;;;;;;12.98;2.95;;;;;;;6.27;45.93;98767.89;2166630;80;21658;-72
2021/03/22 10:11:31;;;;;;;15.08;3.52;;;;;;;6.42;46.41;98759.84;2196614;79;21308;-73
2021/03/22 10:14:34;;;;;;;15.53;3.40;;;;;;;6.10;48.04;98758.21;2210584;80;21327;-72
2021/03/22 10:17:41;;;;;;;10.48;2.52;;;;;;;5.75;49.73;98763.16;2205383;79;21146;-72
2021/03/22 10:20:43;;;;;;;11.12;2.62;;;;;;;5.73;46.27;98751.51;2186717;80;21138;-72
2021/03/22 10:23:45;;;;;;;9.90;2.10;;;;;;;5.88;47.65;98749.16;2177477;80;21264;-72
2021/03/22 10:26:48;;;;;;;10.98;2.17;;;;;;;6.26;43.09;98762.28;2194804;80;21589;-72
2021/03/22 10:29:50;;;;;;;7.97;2.08;;;;;;;5.77;44.08;98752.20;2201495;80;21122;-72
2021/03/22 10:32:52;;;;;;;9.85;2.37;;;;;;;5.54;45.75;98757.08;2196607;80;21383;-72
2021/03/22 10:35:54;;;;;;;14.20;2.58;;;;;;;5.35;45.60;98760.44;2199455;80;21149;-72
2021/03/22 10:38:57;;;;;;;11.93;2.60;;;;;;;5.23;46.29;98749.25;2198762;80;21335;-71
2021/03/22 10:41:59;;;;;;;10.63;2.40;;;;;;;5.07;44.52;98764.62;2198028;80;21375;-72
2021/03/22 10:45:01;;;;;;;11.45;2.37;;;;;;;4.93;45.29;98756.05;2200180;80;21287;-72
2021/03/22 10:48:04;;;;;;;12.50;2.80;;;;;;;4.97;46.85;98747.66;2198288;80;21157;-72
2021/03/22 10:51:07;;;;;;;9.95;2.70;;;;;;;5.26;46.63;98742.62;2199370;80;21299;-72
2021/03/22 10:54:09;;;;;;;10.85;2.60;;;;;;;5.84;46.20;98733.28;2209898;80;21287;-71
2021/03/22 10:57:11;;;;;;;15.13;2.90;;;;;;;6.20;44.12;98730.84;2182864;80;21180;-72
2021/03/22 11:00:16;;;;;;;10.70;2.58;;;;;;;5.82;45.81;98746.80;2183683;80;21162;-72
2021/03/22 11:03:19;;;;;;;12.15;2.60;;;;;;;5.41;43.44;98750.23;2185671;79;21287;-72
2021/03/22 11:06:22;;;;;;;10.63;2.40;;;;;;;5.09;44.93;98746.36;2187611;80;21253;-72
2021/03/22 11:09:25;;;;;;;11.00;2.33;;;;;;;4.92;43.93;98754.81;2200283;79;21562;-72
2021/03/22 11:12:28;;;;;;;10.80;2.12;;;;;;;4.82;45.44;98764.72;2185758;80;21303;-73
2021/03/22 11:15:30;;;;;;;7.47;2.17;;;;;;;4.83;43.72;98776.34;2195935;80;21168;-72
2021/03/22 11:18:35;;;;;;;11.10;2.00;;;;;;;4.99;44.33;98761.00;2203924;79;21593;-72
2021/03/22 11:21:37;;;;;;;8.68;1.87;;;;;;;5.37;42.95;98754.73;2193776;80;21295;-72
2021/03/22 11:24:40;;;;;;;10.05;2.05;;;;;;;5.53;41.16;98757.55;2189802;80;21292;-73
2021/03/22 11:27:43;;;;;;;7.50;1.50;;;;;;;5.33;39.94;98754.47;2178229;80;21701;-72
2021/03/22 11:30:45;;;;;;;7.20;1.60;;;;;;;4.93;38.51;98746.09;2161918;80;21276;-72
2021/03/22 11:33:47;;;;;;;10.88;2.55;;;;;;;5.09;42.16;98743.29;2185368;80;21149;-72
2021/03/22 11:36:49;;;;;;;6.03;1.42;;;;;;;5.86;38.77;98736.22;2190023;80;21291;-73
2021/03/22 11:39:51;;;;;;;10.23;2.45;;;;;;;6.66;38.92;98734.42;2195562;80;21351;-72
2021/03/22 11:42:53;;;;;;;5.58;1.75;;;;;;;6.33;39.86;98785.01;2196554;80;21240;-72
2021/03/22 11:45:55;;;;;;;11.97;2.40;;;;;;;5.77;39.15;98751.37;2210905;79;21295;-72
2021/03/22 11:48:58;;;;;;;9.40;2.15;;;;;;;5.47;41.51;98759.55;2185074;80;21166;-73
2021/03/22 11:52:00;;;;;;;11.33;2.42;;;;;;;5.19;41.63;98755.01;2209405;79;21268;-72
2021/03/22 11:55:03;;;;;;;12.37;2.35;;;;;;;4.93;41.93;98746.09;2197756;80;21327;-72
2021/03/22 11:58:05;;;;;;;9.20;1.98;;;;;;;5.13;42.81;98744.87;2210153;80;21296;-72
2021/03/22 12:04:35;;;;;;;10.25;2.20;;;;;;;6.47;41.22;98740.94;2173987;80;21618;-72
2021/03/22 12:07:37;;;;;;;11.20;2.33;;;;;;;6.75;39.19;98752.25;2198003;79;21355;-73
2021/03/22 12:10:39;;;;;;;12.07;2.62;;;;;;;6.83;40.79;98732.80;2202457;79;21308;-73
2021/03/22 12:13:42;;;;;;;;;;;;;;;7.02;40.10;98744.50;2197327;80;21774;-72
2021/03/22 12:16:44;;;;;;;10.23;2.52;;;;;;;6.92;39.17;98735.83;2203076;80;20530;-72
2021/03/22 12:19:46;;;;;;;17.15;3.40;;;;;;;6.76;39.20;98728.33;2185169;80;21296;-73
2021/03/22 12:22:48;;;;;;;13.50;3.40;;;;;;;7.15;38.67;98734.33;2204291;80;21751;-72
2021/03/22 12:25:50;;;;;;;17.05;3.95;;;;;;;7.55;41.50;98801.53;2193821;80;21299;-72
2021/03/22 12:28:56;;;;;;;17.00;3.83;;;;;;;7.11;43.07;98765.78;2199096;80;21319;-72
2021/03/22 12:31:59;;;;;;;18.52;4.28;;;;;;;6.47;44.91;98761.79;2197557;80;21608;-73
2021/03/22 12:35:01;;;;;;;17.42;4.00;;;;;;;6.00;44.70;98781.19;2191864;80;21302;-73
2021/03/22 12:38:03;;;;;;;15.75;3.50;;;;;;;5.55;45.55;98773.93;2203904;80;21367;-73
2021/03/22 12:41:05;;;;;;;17.62;4.15;;;;;;;5.28;46.51;98764.19;2206135;80;21312;-72
2021/03/22 12:44:07;;;;;;;16.82;4.03;;;;;;;5.18;47.34;98762.41;2197929;80;21174;-72
2021/03/22 12:47:09;;;;;;;16.42;3.92;;;;;;;5.18;46.87;98762.41;2196456;80;21271;-72
2021/03/22 12:50:12;;;;;;;18.20;4.20;;;;;;;5.33;47.19;98756.20;2191331;80;21292;-73
2021/03/22 12:53:14;;;;;;;15.78;4.08;;;;;;;5.96;46.00;98757.50;2188123;80;21307;-72
2021/03/22 12:56:16;;;;;;;14.73;3.72;;;;;;;6.35;44.48;98763.19;2191271;80;21763;-72
2021/03/22 12:59:18;;;;;;;18.30;3.92;;;;;;;6.36;42.98;98751.00;2179435;80;21272;-72
2021/03/22 13:02:20;;;;;;;18.32;4.42;;;;;;;6.73;44.05;98753.23;2184335;80;21284;-72
2021/03/22 13:05:22;;;;;;;17.17;4.40;;;;;;;7.41;42.19;98742.17;2187219;80;21367;-72
2021/03/22 13:08:24;;;;;;;15.08;4.45;;;;;;;7.71;42.89;98721.99;2153392;80;21329;-72
2021/03/22 13:11:26;;;;;;;19.70;4.47;;;;;;;7.50;40.67;98736.52;2204676;80;21743;-72
2021/03/22 13:14:28;;;;;;;17.90;4.30;;;;;;;6.91;42.84;98735.44;2180735;79;21280;-72
2021/03/22 13:17:30;;;;;;;16.65;4.15;;;;;;;6.53;42.81;98732.84;2199887;79;21285;-72
2021/03/22 13:20:32;;;;;;;17.95;3.87;;;;;;;6.14;43.47;98732.89;2192209;80;21299;-72
2021/03/22 13:23:35;;;;;;;18.02;4.30;;;;;;;5.72;42.99;98748.97;2189844;79;21299;-73
2021/03/22 13:26:37;;;;;;;21.90;5.20;;;;;;;5.49;43.92;98748.64;2191158;80;21287;-72
2021/03/22 13:29:39;;;;;;;18.40;4.58;;;;;;;5.92;45.04;98736.84;2196100;80;21323;-73
2021/03/22 13:32:41;;;;;;;22.10;5.00;;;;;;;6.30;46.45;98756.02;2202543;80;21720;-73
2021/03/22 13:35:43;;;;;;;17.67;4.35;;;;;;;6.45;45.20;98748.44;2192572;80;21297;-72
2021/03/22 13:38:45;;;;;;;19.48;4.40;;;;;;;6.28;44.55;98742.67;2183330;80;21309;-72
2021/03/22 13:41:47;;;;;;;17.90;4.58;;;;;;;6.34;43.53;98747.16;2200364;80;21731;-73
2021/03/22 13:44:52;;;;;;;15.45;3.83;;;;;;;6.25;43.83;98741.08;2200314;80;21272;-72
2021/03/22 13:47:54;;;;;;;16.82;4.25;;;;;;;6.47;44.24;98763.56;2202765;80;21284;-72
2021/03/22 13:50:58;;;;;;;20.92;5.37;;;;;;;6.62;43.41;98739.38;2196046;80;21300;-72
2021/03/22 13:54:00;;;;;;;17.77;4.50;;;;;;;6.96;43.72;98757.38;2195847;80;21288;-73
2021/03/22 13:57:02;;;;;;;18.98;4.25;;;;;;;7.02;43.40;98750.55;2191329;80;21287;-73
2021/03/22 14:00:04;;;;;;;16.12;3.83;;;;;;;7.21;42.03;98747.06;2184326;80;21169;-72
2021/03/22 14:03:06;;;;;;;19.30;4.72;;;;;;;7.09;41.04;98750.64;2203664;80;21724;-73
2021/03/22 14:06:08;;;;;;;16.35;3.87;;;;;;;7.20;43.19;98738.88;2200031;79;21164;-73
2021/03/22 14:09:10;;;;;;;16.15;3.45;;;;;;;6.81;42.49;98757.64;2196729;80;21177;-72
2021/03/22 14:12:12;;;;;;;13.83;2.98;;;;;;;6.35;44.05;98767.53;2197741;80;21268;-73
2021/03/22 14:15:14;;;;;;;10.05;3.17;;;;;;;5.68;44.69;98826.31;2184123;80;21304;-73
2021/03/22 14:18:16;;;;;;;11.63;2.90;;;;;;;5.15;46.66;98798.11;2209730;79;21299;-73
2021/03/22 14:21:18;;;;;;;15.45;3.40;;;;;;;4.72;48.39;98803.66;2196535;80;21287;-72